Terminal Aerodrome Forecast
Issued by NWS

Home | Current Version | Previous Version | Text Only | Print | Product List | Glossary On
Versions: 1 2 3 4 5 6 7 8 9 10 11 12 13 14 15 16 17
404
FTUS44 KEPZ 301120
TAFTCS
TAF
KTCS 301120Z 3012/3112 03008KT P6SM SCT050 BKN100
     FM301800 08010KT P6SM SCT050 BKN100
     FM310000 09007KT P6SM VCTS BKN050CB
     FM310600 29006KT P6SM SCT050 BKN100=

USA.gov is the U.S. government's official web portal to all federal, state and local government web resources and services.